Time;durP1;ratioP1;P1;durP2;ratioP2;P2;SDS_P1;SDS_P2;PMS_P1;PMS_P2;Temp;Humidity;BMP_temperature;BMP_pressure;BME280_temperature;BME280_humidity;BME280_pressure;Samples;Min_cycle;Max_cycle;Signal;HPM_P1;HPM_P2
2023/05/12 00:01:07;;;;;;;4.40;1.80;;;;;;;6.81;100.00;100723.52;108575;1257;73549;-46
2023/05/12 00:03:34;;;;;;;3.10;1.50;;;;;;;6.81;100.00;100720.50;105294;1258;70264;-49
2023/05/12 00:06:04;;;;;;;2.60;1.50;;;;;;;6.79;100.00;100718.60;105330;1254;73090;-46
2023/05/12 00:08:30;;;;;;;1.80;1.10;;;;;;;6.79;100.00;100717.69;105524;1254;60399;-46
2023/05/12 00:10:57;;;;;;;4.70;2.30;;;;;;;6.80;100.00;100715.01;105508;1267;60428;-44
2023/05/12 00:13:24;;;;;;;3.50;1.50;;;;;;;6.78;100.00;100713.61;105482;1259;75034;-47
2023/05/12 00:15:51;;;;;;;3.80;1.50;;;;;;;6.77;100.00;100710.78;105529;1264;69073;-45
2023/05/12 00:18:18;;;;;;;5.20;1.80;;;;;;;6.76;100.00;100714.54;105416;1259;72827;-47
2023/05/12 00:20:44;;;;;;;2.90;1.50;;;;;;;6.74;100.00;100717.41;108961;1254;61309;-46
2023/05/12 00:23:11;;;;;;;3.20;1.30;;;;;;;6.68;100.00;100719.67;109055;1254;60804;-47
2023/05/12 00:25:38;;;;;;;1.80;1.10;;;;;;;6.66;100.00;100717.56;109023;1253;74500;-47
2023/05/12 00:28:05;;;;;;;2.20;1.20;;;;;;;6.66;100.00;100723.08;109075;1254;68973;-48
2023/05/12 00:30:31;;;;;;;2.40;1.40;;;;;;;6.66;100.00;100723.62;109030;1253;72932;-46
2023/05/12 00:32:58;;;;;;;4.00;1.70;;;;;;;6.66;100.00;100722.55;109098;1253;58529;-46
2023/05/12 00:35:25;;;;;;;2.40;1.50;;;;;;;6.67;100.00;100727.71;108894;1254;60317;-47
2023/05/12 00:37:52;;;;;;;2.50;1.20;;;;;;;6.66;100.00;100727.73;109086;1253;74694;-47
2023/05/12 00:40:19;;;;;;;1.70;1.10;;;;;;;6.62;100.00;100727.45;108972;1258;69968;-46
2023/05/12 00:42:46;;;;;;;2.60;1.30;;;;;;;6.59;100.00;100731.05;109009;1254;74853;-47
2023/05/12 00:45:13;;;;;;;2.70;1.20;;;;;;;6.59;100.00;100734.62;109041;1255;61789;-47
2023/05/12 00:47:40;;;;;;;2.50;1.30;;;;;;;6.59;100.00;100732.13;108911;1260;61762;-46
2023/05/12 00:50:07;;;;;;;2.20;1.30;;;;;;;6.59;100.00;100735.87;109059;1257;74699;-45
2023/05/12 00:52:34;;;;;;;3.10;1.00;;;;;;;6.58;100.00;100733.91;108778;1254;70250;-45
2023/05/12 00:55:01;;;;;;;3.30;1.90;;;;;;;6.60;100.00;100736.77;109074;1254;74492;-45
2023/05/12 00:57:28;;;;;;;5.20;1.20;;;;;;;6.60;100.00;100735.33;108975;1253;61626;-47
2023/05/12 00:59:55;;;;;;;2.90;1.40;;;;;;;6.59;100.00;100744.80;108957;1254;58538;-47
2023/05/12 01:02:22;;;;;;;2.50;1.40;;;;;;;6.57;100.00;100746.60;108771;1253;76368;-46
2023/05/12 01:04:50;;;;;;;2.20;1.10;;;;;;;6.55;100.00;100743.08;106556;1259;70158;-47
2023/05/12 01:07:19;;;;;;;3.80;1.00;;;;;;;6.54;100.00;100745.23;107010;1255;72407;-48
2023/05/12 01:09:46;;;;;;;2.60;1.50;;;;;;;6.53;100.00;100744.00;105419;1260;60530;-47
2023/05/12 01:12:14;;;;;;;2.20;1.20;;;;;;;6.50;100.00;100745.65;105875;1254;60575;-46
2023/05/12 01:14:41;;;;;;;1.50;1.10;;;;;;;6.47;100.00;100746.77;105441;1260;74665;-47
2023/05/12 01:17:12;;;;;;;2.50;1.30;;;;;;;6.41;100.00;100749.89;105359;1259;66749;-47
2023/05/12 01:19:48;;;;;;;3.20;1.40;;;;;;;6.36;100.00;100751.04;105619;1260;72962;-46
2023/05/12 01:22:18;;;;;;;1.90;1.40;;;;;;;6.30;100.00;100755.77;105918;1254;60444;-45
2023/05/12 01:24:56;;;;;;;2.50;1.70;;;;;;;6.27;100.00;100754.92;105744;1254;62490;-47
2023/05/12 01:27:25;;;;;;;4.40;2.20;;;;;;;6.25;100.00;100751.20;105337;1261;76249;-46
2023/05/12 01:29:56;;;;;;;3.50;1.70;;;;;;;6.23;100.00;100751.23;107677;1257;68737;-48
2023/05/12 01:32:23;;;;;;;4.20;2.40;;;;;;;6.21;100.00;100750.75;105567;1254;72259;-46
2023/05/12 01:34:50;;;;;;;2.80;2.20;;;;;;;6.19;100.00;100751.13;104902;1260;60715;-48
2023/05/12 01:37:18;;;;;;;4.00;2.20;;;;;;;6.18;100.00;100751.85;104882;1254;62228;-48
2023/05/12 01:39:45;;;;;;;3.90;2.70;;;;;;;6.18;100.00;100747.92;105707;1254;76560;-50
2023/05/12 01:42:18;;;;;;;2.80;2.40;;;;;;;6.18;100.00;100749.17;105489;1254;68469;-48
2023/05/12 01:44:45;;;;;;;3.80;2.50;;;;;;;6.18;100.00;100749.72;105192;1257;74300;-47
2023/05/12 01:47:14;;;;;;;3.00;2.20;;;;;;;6.17;100.00;100751.34;105367;1257;60495;-50
2023/05/12 01:49:45;;;;;;;3.60;2.30;;;;;;;6.16;100.00;100753.48;105220;1260;60351;-48
2023/05/12 01:52:14;;;;;;;2.80;2.10;;;;;;;6.15;100.00;100754.73;105300;1257;75825;-47
2023/05/12 01:54:40;;;;;;;2.90;2.30;;;;;;;6.14;100.00;100748.14;105083;1261;66130;-49
2023/05/12 01:57:07;;;;;;;5.60;2.20;;;;;;;6.12;100.00;100751.05;104724;1257;71281;-47
2023/05/12 01:59:35;;;;;;;4.40;1.70;;;;;;;6.06;100.00;100750.94;104816;1254;60831;-49
2023/05/12 02:02:04;;;;;;;3.10;1.60;;;;;;;6.01;100.00;100754.59;106368;1254;62630;-47
2023/05/12 02:04:30;;;;;;;5.40;2.00;;;;;;;5.97;100.00;100756.59;105183;1254;76204;-47
2023/05/12 02:06:58;;;;;;;3.90;1.80;;;;;;;5.91;100.00;100754.72;105011;1254;68218;-48
2023/05/12 02:09:25;;;;;;;5.50;1.90;;;;;;;5.87;100.00;100753.88;105476;1259;72680;-48
2023/05/12 02:11:55;;;;;;;3.30;1.80;;;;;;;5.84;100.00;100756.73;104930;1257;60549;-48
2023/05/12 02:14:21;;;;;;;6.40;2.30;;;;;;;5.84;100.00;100758.17;105266;1254;62263;-47
2023/05/12 02:16:51;;;;;;;3.10;2.00;;;;;;;5.83;100.00;100759.24;105521;1261;75642;-48
2023/05/12 02:19:19;;;;;;;4.60;2.30;;;;;;;5.80;100.00;100759.46;105588;1257;66722;-48
2023/05/12 02:21:47;;;;;;;3.30;1.60;;;;;;;5.76;100.00;100757.38;105423;1257;72474;-46
2023/05/12 02:24:15;;;;;;;6.10;2.30;;;;;;;5.76;100.00;100761.66;105371;1254;60441;-49
2023/05/12 02:26:42;;;;;;;2.40;1.70;;;;;;;5.75;100.00;100760.95;104930;1254;62550;-48
2023/05/12 02:29:10;;;;;;;3.10;1.70;;;;;;;5.75;100.00;100761.14;104524;1261;73909;-47
2023/05/12 02:31:37;;;;;;;2.90;1.90;;;;;;;5.75;100.00;100759.89;104740;1254;66291;-47
2023/05/12 02:34:11;;;;;;;3.00;1.70;;;;;;;5.74;100.00;100757.22;105160;1260;74203;-47
2023/05/12 02:36:38;;;;;;;2.90;1.90;;;;;;;5.73;100.00;100759.73;105194;1259;62641;-47
2023/05/12 02:39:05;;;;;;;2.90;1.90;;;;;;;5.74;100.00;100760.25;105173;1254;60457;-47
2023/05/12 02:41:31;;;;;;;5.20;1.90;;;;;;;5.76;100.00;100763.61;105230;1255;75320;-47
2023/05/12 02:43:58;;;;;;;5.50;1.60;;;;;;;5.77;100.00;100763.25;105181;1254;69323;-48
2023/05/12 02:46:25;;;;;;;4.60;2.30;;;;;;;5.78;100.00;100769.29;105245;1254;74784;-47
2023/05/12 02:48:52;;;;;;;3.90;1.80;;;;;;;5.80;100.00;100769.60;105220;1254;62470;-48
2023/05/12 02:51:19;;;;;;;4.70;1.60;;;;;;;5.82;100.00;100763.52;105160;1260;60334;-48
2023/05/12 02:53:46;;;;;;;3.60;2.10;;;;;;;5.86;100.00;100769.02;105173;1254;74455;-48
2023/05/12 02:56:12;;;;;;;3.70;1.70;;;;;;;5.90;100.00;100768.27;105193;1255;68171;-48
2023/05/12 02:58:39;;;;;;;2.40;1.60;;;;;;;5.89;100.00;100768.80;105110;1260;74504;-48
2023/05/12 03:01:06;;;;;;;5.40;2.40;;;;;;;5.83;100.00;100774.56;105185;1260;60749;-48
2023/05/12 03:03:37;;;;;;;7.40;2.80;;;;;;;5.74;100.00;100781.27;105944;1254;59271;-47
2023/05/12 03:06:05;;;;;;;5.20;1.80;;;;;;;5.64;100.00;100777.98;105201;1254;76115;-46
2023/05/12 03:08:32;;;;;;;4.10;1.50;;;;;;;5.59;100.00;100773.63;105528;1259;68825;-47
2023/05/12 03:10:58;;;;;;;3.00;1.80;;;;;;;5.58;100.00;100778.08;105275;1257;71064;-50
2023/05/12 03:13:25;;;;;;;4.50;2.00;;;;;;;5.60;100.00;100782.33;105242;1259;60495;-49
2023/05/12 03:15:52;;;;;;;2.20;1.70;;;;;;;5.61;100.00;100784.63;105267;1254;60476;-48
2023/05/12 03:18:19;;;;;;;2.60;1.60;;;;;;;5.62;100.00;100786.39;106324;1260;74599;-49
2023/05/12 03:20:46;;;;;;;3.90;2.00;;;;;;;5.62;100.00;100795.11;108825;1253;69722;-51
2023/05/12 03:23:13;;;;;;;3.50;2.00;;;;;;;5.63;100.00;100799.20;108952;1257;71099;-52
2023/05/12 03:25:39;;;;;;;6.60;1.70;;;;;;;5.68;100.00;100800.05;108894;1257;60896;-51
2023/05/12 03:28:06;;;;;;;6.90;1.50;;;;;;;5.76;100.00;100798.16;108990;1253;59031;-52
2023/05/12 03:30:33;;;;;;;2.90;1.50;;;;;;;5.86;100.00;100806.60;108943;1254;73809;-52
2023/05/12 03:33:00;;;;;;;3.50;2.00;;;;;;;5.97;100.00;100811.83;109083;1257;67820;-52
2023/05/12 03:35:26;;;;;;;3.00;1.40;;;;;;;6.08;100.00;100814.17;108905;1254;74773;-51
2023/05/12 03:37:53;;;;;;;6.40;1.20;;;;;;;6.18;100.00;100817.96;108178;1254;61455;-48
2023/05/12 03:40:20;;;;;;;2.90;1.60;;;;;;;6.29;100.00;100817.64;109070;1254;59667;-52
2023/05/12 03:42:47;;;;;;;2.20;1.70;;;;;;;6.40;100.00;100817.13;109137;1254;73313;-47
2023/05/12 03:45:16;;;;;;;1.90;1.60;;;;;;;6.51;100.00;100817.14;108980;1254;68879;-48
2023/05/12 03:47:43;;;;;;;4.20;1.70;;;;;;;6.62;100.00;100819.83;108962;1257;72598;-49
2023/05/12 03:50:10;;;;;;;2.30;1.70;;;;;;;6.72;100.00;100822.89;108972;1254;58687;-47
2023/05/12 03:52:39;;;;;;;4.80;2.20;;;;;;;6.81;100.00;100824.88;109043;1252;58976;-47
2023/05/12 03:55:07;;;;;;;2.50;1.50;;;;;;;6.91;100.00;100822.93;108966;1254;74939;-48
2023/05/12 03:57:35;;;;;;;2.90;1.50;;;;;;;7.02;100.00;100828.46;109087;1254;69083;-49
2023/05/12 04:00:04;;;;;;;2.20;1.40;;;;;;;7.11;100.00;100826.88;109064;1257;71407;-50
2023/05/12 04:02:38;;;;;;;2.50;1.80;;;;;;;7.21;100.00;100825.81;108958;1254;59267;-47
2023/05/12 04:05:07;;;;;;;2.70;1.60;;;;;;;7.31;100.00;100824.73;108862;1253;62385;-49
2023/05/12 04:07:34;;;;;;;2.70;1.30;;;;;;;7.42;100.00;100827.74;108891;1253;71940;-49
2023/05/12 04:10:01;;;;;;;4.10;0.90;;;;;;;7.55;100.00;100830.00;106030;1253;68622;-48
2023/05/12 04:12:28;;;;;;;3.80;1.40;;;;;;;7.70;100.00;100834.90;105087;1254;72129;-46
2023/05/12 04:14:56;;;;;;;1.50;1.10;;;;;;;7.87;100.00;100838.14;105273;1260;61377;-46
2023/05/12 04:17:23;;;;;;;2.90;1.10;;;;;;;8.05;100.00;100841.88;106208;1254;60929;-47
2023/05/12 04:19:52;;;;;;;1.90;1.10;;;;;;;8.23;100.00;100845.42;106262;1253;168288;-46
2023/05/12 04:23:46;;;;;;;2.50;1.00;;;;;;;8.51;100.00;100849.85;102159;1291;600481;-49
2023/05/12 04:26:13;;;;;;;4.40;1.20;;;;;;;8.64;100.00;100855.82;105245;1266;59876;-49
2023/05/12 04:28:39;;;;;;;2.00;1.20;;;;;;;8.78;100.00;100857.11;104129;1266;62471;-47
2023/05/12 04:31:07;;;;;;;2.30;1.10;;;;;;;8.90;100.00;100863.97;104013;1269;73075;-46
2023/05/12 04:33:35;;;;;;;5.30;1.40;;;;;;;9.02;100.00;100869.79;104186;1266;66713;-46
2023/05/12 04:36:04;;;;;;;2.20;1.10;;;;;;;9.12;100.00;100872.40;104533;1271;73871;-45
2023/05/12 04:38:31;;;;;;;3.60;1.10;;;;;;;9.22;100.00;100877.88;104399;1265;193893;-48
2023/05/12 04:40:58;;;;;;;3.30;1.10;;;;;;;9.32;100.00;100879.77;104482;1264;60895;-45
2023/05/12 04:43:26;;;;;;;3.00;1.20;;;;;;;9.42;100.00;100880.77;104421;1264;72686;-48
2023/05/12 04:45:56;;;;;;;3.90;1.30;;;;;;;9.52;100.00;100885.17;106354;1266;68909;-45
2023/05/12 04:48:27;;;;;;;2.40;1.10;;;;;;;9.62;100.00;100884.73;104124;1271;72453;-48
2023/05/12 04:50:57;;;;;;;2.40;1.10;;;;;;;9.73;100.00;100883.54;104096;1268;62195;-50
2023/05/12 04:53:25;;;;;;;3.00;1.30;;;;;;;9.84;100.00;100887.88;106688;1265;60975;-48
2023/05/12 04:55:52;;;;;;;4.00;1.20;;;;;;;9.96;100.00;100891.16;104897;1266;73433;-45
2023/05/12 04:58:19;;;;;;;2.40;1.30;;;;;;;10.08;100.00;100891.01;104316;1270;67985;-48
2023/05/12 05:00:46;;;;;;;2.40;1.50;;;;;;;10.19;100.00;100894.27;104072;1266;72991;-47
2023/05/12 05:03:13;;;;;;;2.10;1.40;;;;;;;10.32;100.00;100894.29;104370;1266;61358;-49
2023/05/12 05:05:40;;;;;;;1.70;1.00;;;;;;;10.43;100.00;100894.30;104613;1265;59925;-47
2023/05/12 05:08:07;;;;;;;6.10;1.00;;;;;;;10.55;100.00;100896.64;104311;1270;72932;-49
2023/05/12 05:10:34;;;;;;;4.30;1.50;;;;;;;10.67;100.00;100899.16;104285;1265;70339;-48
2023/05/12 05:13:01;;;;;;;9.20;1.60;;;;;;;10.79;100.00;100905.42;104477;1268;73254;-49
2023/05/12 05:15:28;;;;;;;1.90;1.30;;;;;;;10.90;100.00;100906.52;104337;1270;61189;-46
2023/05/12 05:17:55;;;;;;;2.20;1.20;;;;;;;11.00;100.00;100908.70;104398;1270;59662;-47
2023/05/12 05:20:22;;;;;;;2.50;1.40;;;;;;;11.10;100.00;100911.27;104511;1272;73692;-47
2023/05/12 05:22:54;;;;;;;3.50;1.10;;;;;;;11.21;100.00;100917.02;104655;1265;67997;-49
2023/05/12 05:25:21;;;;;;;1.90;1.20;;;;;;;11.32;100.00;100919.36;104560;1265;72756;-48
2023/05/12 05:27:48;;;;;;;2.90;1.20;;;;;;;11.42;100.00;100923.50;105317;1254;59732;-48
2023/05/12 05:30:15;;;;;;;6.80;1.20;;;;;;;11.54;100.00;100926.71;104995;1256;61354;-46
2023/05/12 05:32:43;;;;;;;4.10;1.30;;;;;;;11.64;100.00;100923.83;105023;1260;75784;-49
2023/05/12 05:35:10;;;;;;;4.70;1.30;;;;;;;11.74;100.00;100929.80;104823;1256;68402;-49
2023/05/12 05:37:41;;;;;;;3.10;1.40;;;;;;;11.85;100.00;100927.27;104902;1255;72897;-47
2023/05/12 05:40:08;;;;;;;2.40;1.40;;;;;;;11.96;100.00;100928.13;105312;1261;59839;-45
2023/05/12 05:42:35;;;;;;;4.00;2.00;;;;;;;12.08;100.00;100930.40;104776;1256;59596;-48
2023/05/12 05:45:02;;;;;;;8.70;1.80;;;;;;;12.21;100.00;100928.88;104713;1256;71005;-49
2023/05/12 05:47:30;;;;;;;2.50;1.30;;;;;;;12.32;100.00;100934.39;104530;1261;69361;-44
2023/05/12 05:49:57;;;;;;;8.10;2.00;;;;;;;12.44;100.00;100935.74;104760;1254;74834;-48
2023/05/12 05:52:24;;;;;;;2.00;1.20;;;;;;;12.58;100.00;100935.08;104748;1256;61143;-47
2023/05/12 05:54:51;;;;;;;6.80;1.00;;;;;;;12.69;100.00;100940.75;104673;1261;59594;-47
2023/05/12 05:57:20;;;;;;;4.30;1.20;;;;;;;12.81;100.00;100945.30;105675;1259;74365;-46
2023/05/12 05:59:47;;;;;;;2.80;0.90;;;;;;;12.95;100.00;100946.61;105797;1256;69743;-49
2023/05/12 06:02:15;;;;;;;6.70;1.60;;;;;;;13.07;100.00;100944.84;105317;1258;73045;-45
2023/05/12 06:04:42;;;;;;;3.40;0.80;;;;;;;13.20;100.00;100945.41;109009;1254;63274;-48
2023/05/12 06:07:08;;;;;;;2.00;1.10;;;;;;;13.34;100.00;100944.52;105625;1255;60830;-48
2023/05/12 06:09:35;;;;;;;4.00;1.40;;;;;;;13.46;100.00;100944.75;105331;1259;73178;-50
2023/05/12 06:12:02;;;;;;;3.10;0.80;;;;;;;13.59;100.00;100951.95;105415;1255;67802;-49
2023/05/12 06:14:28;;;;;;;4.10;1.00;;;;;;;13.70;100.00;100951.30;105195;1256;73997;-49
2023/05/12 06:16:55;;;;;;;9.60;1.90;;;;;;;13.81;100.00;100950.11;104968;1256;60395;-49
2023/05/12 06:19:22;;;;;;;4.10;0.90;;;;;;;13.89;100.00;100956.80;104936;1258;59559;-48
2023/05/12 06:21:51;;;;;;;4.60;0.90;;;;;;;13.96;100.00;100959.02;104737;1259;75674;-49
2023/05/12 06:24:18;;;;;;;1.20;0.90;;;;;;;14.02;100.00;100959.48;105114;1259;69702;-49
2023/05/12 06:26:45;;;;;;;7.00;0.80;;;;;;;14.09;100.00;100961.90;105246;1260;74258;-48
2023/05/12 06:29:12;;;;;;;2.00;0.70;;;;;;;14.15;100.00;100962.68;104963;1258;60238;-48
2023/05/12 06:31:39;;;;;;;6.30;0.80;;;;;;;14.23;100.00;100963.08;104804;1256;60376;-48
2023/05/12 06:34:07;;;;;;;5.60;0.80;;;;;;;14.32;100.00;100966.64;104790;1256;73639;-49
2023/05/12 06:36:33;;;;;;;6.60;1.00;;;;;;;14.42;100.00;100967.52;104596;1256;67930;-49
2023/05/12 06:39:00;;;;;;;2.60;0.70;;;;;;;14.50;100.00;100966.62;104749;1256;72552;-48
2023/05/12 06:41:27;;;;;;;4.00;0.80;;;;;;;14.54;100.00;100967.49;108829;1254;62323;-49
2023/05/12 06:43:54;;;;;;;1.20;0.70;;;;;;;14.61;100.00;100965.35;108826;1255;60517;-50
2023/05/12 06:46:26;;;;;;;1.70;0.80;;;;;;;14.71;100.00;100970.10;108873;1255;71862;-48
2023/05/12 06:48:54;;;;;;;3.50;0.90;;;;;;;14.83;100.00;100971.79;108823;1256;70145;-49
2023/05/12 06:51:21;;;;;;;2.00;0.60;;;;;;;14.95;100.00;100972.27;108614;1256;71444;-47
2023/05/12 06:53:47;;;;;;;1.50;0.60;;;;;;;15.07;100.00;100978.91;108852;1254;61685;-47
2023/05/12 06:56:15;;;;;;;2.10;0.60;;;;;;;15.17;100.00;100981.89;108812;1254;62125;-48
2023/05/12 06:58:42;;;;;;;1.60;0.40;;;;;;;15.25;100.00;100978.42;108949;1254;73166;-47
2023/05/12 07:01:09;;;;;;;2.20;0.50;;;;;;;15.33;100.00;100975.33;108844;1254;67144;-49
2023/05/12 07:03:36;;;;;;;1.60;0.50;;;;;;;15.40;100.00;100976.40;108912;1254;76120;-48
2023/05/12 07:06:03;;;;;;;1.10;0.40;;;;;;;15.47;100.00;100977.73;108943;1256;58437;-48
2023/05/12 07:08:30;;;;;;;3.10;0.50;;;;;;;15.52;100.00;100980.17;105090;1259;62239;-47
2023/05/12 07:10:59;;;;;;;2.10;0.50;;;;;;;15.56;100.00;100986.02;104902;1258;76350;-49
2023/05/12 07:13:25;;;;;;;2.00;0.40;;;;;;;15.59;100.00;100984.56;108216;1256;67381;-51
2023/05/12 07:15:52;;;;;;;2.90;0.40;;;;;;;15.63;100.00;100985.30;104580;1256;73938;-47
2023/05/12 07:18:19;;;;;;;4.30;0.40;;;;;;;15.69;100.00;100989.31;104867;1257;60410;-49
2023/05/12 07:20:46;;;;;;;1.70;0.40;;;;;;;15.77;100.00;100986.89;105291;1258;59571;-48
2023/05/12 07:23:12;;;;;;;1.10;0.40;;;;;;;15.87;100.00;100990.17;105082;1256;74119;-50
2023/05/12 07:25:39;;;;;;;3.70;0.40;;;;;;;15.97;100.00;100990.44;105167;1258;67466;-50
2023/05/12 07:28:06;;;;;;;1.50;0.40;;;;;;;16.04;100.00;100993.30;105586;1258;75003;-49
2023/05/12 07:30:33;;;;;;;1.10;0.40;;;;;;;16.12;100.00;100989.11;105303;1256;61154;-49
2023/05/12 07:33:00;;;;;;;1.10;0.30;;;;;;;16.20;100.00;100990.14;105049;1259;60470;-48
2023/05/12 07:35:27;;;;;;;1.00;0.40;;;;;;;16.28;100.00;100994.06;105165;1260;75481;-49
2023/05/12 07:37:53;;;;;;;0.70;0.40;;;;;;;16.37;100.00;100994.88;105312;1256;68714;-46
2023/05/12 07:40:20;;;;;;;2.40;0.50;;;;;;;16.44;100.00;100995.02;105150;1258;74119;-49
2023/05/12 07:42:47;;;;;;;1.00;0.30;;;;;;;16.51;100.00;100990.67;104601;1259;61072;-51
2023/05/12 07:45:21;;;;;;;0.50;0.30;;;;;;;16.59;100.00;100991.15;104813;1256;62953;-49
2023/05/12 07:47:49;;;;;;;6.60;0.60;;;;;;;16.67;100.00;100990.20;105456;1258;73508;-47
2023/05/12 07:50:17;;;;;;;0.90;0.40;;;;;;;16.69;100.00;100993.16;105705;1258;67281;-51
2023/05/12 07:52:48;;;;;;;0.90;0.40;;;;;;;16.71;100.00;100991.29;105269;1259;72038;-50
2023/05/12 07:55:15;;;;;;;0.90;0.50;;;;;;;16.72;100.00;100992.66;105386;1256;60246;-48
2023/05/12 07:57:42;;;;;;;1.10;0.40;;;;;;;16.71;100.00;100990.17;105216;1261;60220;-48
2023/05/12 08:00:10;;;;;;;1.50;0.50;;;;;;;16.68;100.00;100984.38;105405;1256;71676;-49
2023/05/12 08:02:40;;;;;;;1.50;0.40;;;;;;;16.63;100.00;100985.16;105308;1259;67437;-50
2023/05/12 08:05:08;;;;;;;1.30;0.40;;;;;;;16.62;100.00;100987.54;105402;1259;73173;-49
2023/05/12 08:07:36;;;;;;;0.70;0.40;;;;;;;16.68;100.00;100987.97;105508;1258;60123;-45
2023/05/12 08:10:05;;;;;;;1.10;0.40;;;;;;;16.72;100.00;100981.77;105322;1254;63001;-50
2023/05/12 08:12:32;;;;;;;0.70;0.30;;;;;;;16.76;100.00;100983.01;105341;1259;73049;-49
2023/05/12 08:14:59;;;;;;;1.10;0.40;;;;;;;16.83;100.00;100982.80;104460;1256;66899;-49
2023/05/12 08:17:26;;;;;;;0.60;0.40;;;;;;;16.88;100.00;100982.33;105347;1255;72598;-49
2023/05/12 08:19:55;;;;;;;1.20;0.50;;;;;;;16.89;100.00;100979.78;104733;1257;59747;-50
2023/05/12 08:22:22;;;;;;;0.90;0.50;;;;;;;16.86;100.00;100983.02;104665;1256;60414;-48
2023/05/12 08:24:48;;;;;;;1.00;0.40;;;;;;;16.84;100.00;100978.42;104925;1256;72620;-51
2023/05/12 08:27:16;;;;;;;2.00;0.50;;;;;;;16.87;100.00;100974.63;104941;1267;66209;-50
2023/05/12 08:29:43;;;;;;;1.40;0.50;;;;;;;16.92;100.00;100975.57;105398;1256;74330;-48
2023/05/12 08:32:10;;;;;;;3.00;0.40;;;;;;;17.04;100.00;100972.95;105227;1255;60541;-48
2023/05/12 08:34:37;;;;;;;1.30;0.50;;;;;;;17.11;100.00;100972.15;105336;1259;60310;-50
2023/05/12 08:37:04;;;;;;;2.60;0.40;;;;;;;17.15;100.00;100972.71;105327;1260;76397;-49
2023/05/12 08:39:32;;;;;;;1.00;0.50;;;;;;;17.16;100.00;100972.08;104824;1261;67203;-49
2023/05/12 08:42:49;;;;;;;0.70;0.40;;;;;;;17.18;100.00;100970.72;105742;1257;72942;-50
2023/05/12 08:45:16;;;;;;;1.80;0.40;;;;;;;17.17;100.00;100966.07;108454;1262;61134;-49
2023/05/12 08:47:43;;;;;;;6.20;0.40;;;;;;;17.16;100.00;100956.48;106096;1257;60906;-49
2023/05/12 08:50:10;;;;;;;0.60;0.40;;;;;;;17.18;100.00;100953.48;105244;1259;72468;-54
2023/05/12 08:52:37;;;;;;;1.70;0.40;;;;;;;17.19;100.00;100959.20;105346;1258;68603;-50
2023/05/12 08:55:05;;;;;;;0.40;0.30;;;;;;;17.21;100.00;100959.11;105256;1261;74035;-50
2023/05/12 08:57:32;;;;;;;0.80;0.40;;;;;;;17.27;100.00;100960.17;105515;1259;62440;-50
2023/05/12 08:59:59;;;;;;;4.30;0.40;;;;;;;17.33;100.00;100956.23;104893;1256;60407;-50
2023/05/12 09:02:26;;;;;;;0.60;0.30;;;;;;;17.35;100.00;100956.66;104848;1254;74054;-51
2023/05/12 09:05:03;;;;;;;2.70;0.40;;;;;;;17.41;100.00;100950.50;104794;1256;67216;-52
2023/05/12 09:07:31;;;;;;;2.50;0.50;;;;;;;17.54;100.00;100952.48;104924;1254;74825;-50
2023/05/12 09:09:57;;;;;;;1.70;0.40;;;;;;;17.70;100.00;100956.83;105717;1260;62221;-50
2023/05/12 09:12:25;;;;;;;4.30;0.50;;;;;;;17.82;100.00;100959.04;104917;1259;60856;-50
2023/05/12 09:14:57;;;;;;;2.30;0.40;;;;;;;17.94;100.00;100955.75;105480;1260;72857;-50
2023/05/12 09:17:24;;;;;;;0.90;0.40;;;;;;;18.09;100.00;100958.85;104705;1256;68391;-50
2023/05/12 09:19:51;;;;;;;1.50;0.40;;;;;;;18.23;100.00;100961.08;104665;1258;74628;-49
2023/05/12 09:22:27;;;;;;;3.40;0.60;;;;;;;18.34;100.00;100962.04;104904;1256;61025;-49
2023/05/12 09:24:54;;;;;;;0.80;0.30;;;;;;;18.41;100.00;100952.34;105351;1258;62011;-49
2023/05/12 09:27:28;;;;;;;1.80;0.50;;;;;;;18.42;100.00;100949.92;104993;1259;74872;-48
2023/05/12 09:29:55;;;;;;;3.40;0.40;;;;;;;18.43;100.00;100947.83;108803;1253;65758;-49
2023/05/12 09:32:30;;;;;;;5.60;0.40;;;;;;;18.44;100.00;100944.52;108739;1256;71431;-51
2023/05/12 09:35:02;;;;;;;1.90;0.40;;;;;;;18.50;100.00;100946.70;108899;1256;60574;-48
2023/05/12 09:37:31;;;;;;;0.70;0.40;;;;;;;18.57;100.00;100939.52;108877;1255;61519;-48
2023/05/12 09:40:01;;;;;;;5.40;0.40;;;;;;;18.68;100.00;100937.92;108964;1254;72307;-49
2023/05/12 09:42:29;;;;;;;3.70;0.50;;;;;;;18.78;100.00;100936.73;108841;1256;68660;-49
2023/05/12 09:45:03;;;;;;;2.20;0.60;;;;;;;18.87;100.00;100940.89;108198;1258;75017;-51
2023/05/12 09:47:35;;;;;;;1.10;0.60;;;;;;;18.97;100.00;100939.38;109018;1257;61216;-49
2023/05/12 09:50:02;;;;;;;6.80;0.40;;;;;;;19.04;100.00;100937.79;108939;1254;60742;-52
2023/05/12 09:52:31;;;;;;;1.10;0.50;;;;;;;19.07;100.00;100933.05;108979;1258;75379;-50
2023/05/12 09:55:12;;;;;;;1.50;0.50;;;;;;;19.14;100.00;100935.38;107338;1259;67692;-49
2023/05/12 09:57:39;;;;;;;0.60;0.50;;;;;;;19.24;100.00;100938.67;108894;1254;74346;-50
2023/05/12 10:00:07;;;;;;;0.70;0.50;;;;;;;19.34;100.00;100936.98;108966;1254;60195;-50
2023/05/12 10:02:54;;;;;;;2.10;0.40;;;;;;;19.42;100.00;100936.40;108846;1259;59413;-50
2023/05/12 10:05:21;;;;;;;2.00;0.60;;;;;;;19.49;100.00;100941.08;108951;1254;72408;-49
2023/05/12 10:07:49;;;;;;;0.90;0.40;;;;;;;19.53;100.00;100940.22;108901;1254;67431;-49
2023/05/12 10:10:22;;;;;;;1.50;0.40;;;;;;;19.58;100.00;100938.98;108721;1258;74843;-50
2023/05/12 10:12:49;;;;;;;2.10;0.40;;;;;;;19.60;100.00;100931.75;108878;1257;60657;-50
2023/05/12 10:15:16;;;;;;;3.70;0.40;;;;;;;19.64;100.00;100930.57;105935;1257;62286;-50
2023/05/12 10:17:43;;;;;;;4.30;0.50;;;;;;;19.69;100.00;100931.38;105331;1260;74708;-49
2023/05/12 10:20:10;;;;;;;3.40;0.40;;;;;;;19.71;100.00;100926.88;105595;1260;65644;-50
2023/05/12 10:22:37;;;;;;;1.40;0.40;;;;;;;19.75;100.00;100921.27;105151;1257;70631;-50
2023/05/12 10:25:05;;;;;;;2.90;0.50;;;;;;;19.78;100.00;100921.42;105387;1257;60938;-50
2023/05/12 10:27:32;;;;;;;5.60;0.40;;;;;;;19.80;100.00;100917.71;107962;1259;61470;-52
2023/05/12 10:30:00;;;;;;;3.30;0.30;;;;;;;19.80;100.00;100915.11;105097;1260;74289;-50
2023/05/12 10:32:27;;;;;;;0.50;0.50;;;;;;;19.87;100.00;100909.34;105346;1260;65995;-52
2023/05/12 10:34:53;;;;;;;1.10;0.40;;;;;;;19.94;100.00;100907.19;105190;1260;71439;-54
2023/05/12 10:37:22;;;;;;;0.90;0.50;;;;;;;19.96;100.00;100908.73;105095;1260;60432;-50
2023/05/12 10:39:51;;;;;;;1.80;0.40;;;;;;;19.98;100.00;100909.48;105624;1259;61106;-50
2023/05/12 10:42:24;;;;;;;1.20;0.40;;;;;;;20.02;100.00;100908.62;105176;1254;74682;-50
2023/05/12 10:44:52;;;;;;;2.50;0.30;;;;;;;20.01;100.00;100907.08;105235;1257;69618;-54
2023/05/12 10:47:25;;;;;;;1.00;0.70;;;;;;;19.94;100.00;100907.97;104746;1256;75017;-52
2023/05/12 10:49:57;;;;;;;0.60;0.40;;;;;;;19.88;100.00;100899.81;105082;1260;61740;-52
2023/05/12 10:52:24;;;;;;;5.70;0.40;;;;;;;19.87;100.00;100896.58;104813;1256;60000;-51
2023/05/12 10:54:58;;;;;;;0.40;0.40;;;;;;;19.92;100.00;100895.13;105157;1257;75771;-52
2023/05/12 10:57:25;;;;;;;0.60;0.30;;;;;;;19.95;100.00;100894.38;108679;1255;69250;-51
2023/05/12 10:59:56;;;;;;;1.30;0.40;;;;;;;20.01;100.00;100889.42;108688;1258;73327;-52
2023/05/12 11:02:28;;;;;;;0.50;0.30;;;;;;;20.08;100.00;100890.77;108801;1257;59583;-51
2023/05/12 11:04:58;;;;;;;0.40;0.30;;;;;;;20.13;100.00;100884.96;108788;1257;61058;-47
2023/05/12 11:07:28;;;;;;;0.90;0.30;;;;;;;20.15;100.00;100884.98;106179;1254;74718;-52
2023/05/12 11:09:57;;;;;;;2.20;0.30;;;;;;;20.17;100.00;100884.10;105501;1259;68100;-50
2023/05/12 11:12:31;;;;;;;1.20;0.40;;;;;;;20.15;100.00;100872.73;105373;1261;73193;-51
2023/05/12 11:14:59;;;;;;;1.50;0.40;;;;;;;20.07;100.00;100872.83;105291;1257;60540;-53
2023/05/12 11:17:26;;;;;;;0.50;0.40;;;;;;;20.02;100.00;100870.58;105485;1255;61365;-53